createdAt,value
2023-05-09T00:00:46.331Z,16.21
2023-05-09T00:03:14.475Z,16.16
2023-05-09T00:05:42.042Z,16.14
2023-05-09T00:08:08.805Z,16.14
2023-05-09T00:10:35.726Z,16.14
2023-05-09T00:13:02.595Z,16.12
2023-05-09T00:15:29.364Z,16.09
2023-05-09T00:17:55.900Z,16.10
2023-05-09T00:20:22.575Z,16.09
2023-05-09T00:22:49.097Z,16.07
2023-05-09T00:25:15.797Z,16.06
2023-05-09T00:27:42.494Z,16.04
2023-05-09T00:30:10.793Z,16.03
2023-05-09T00:32:37.530Z,16.01
2023-05-09T00:35:04.438Z,16.00
2023-05-09T00:37:31.536Z,15.97
2023-05-09T00:39:58.347Z,15.95
2023-05-09T00:42:24.961Z,15.94
2023-05-09T00:44:51.614Z,15.91
2023-05-09T00:47:18.516Z,15.88
2023-05-09T00:49:45.156Z,15.87
2023-05-09T00:52:11.853Z,15.86
2023-05-09T00:54:38.601Z,15.87
2023-05-09T00:57:05.578Z,15.86
2023-05-09T00:59:32.175Z,15.84
2023-05-09T01:04:53.637Z,15.80
2023-05-09T01:07:31.323Z,15.81
2023-05-09T01:10:15.633Z,15.81
2023-05-09T01:12:54.339Z,15.79
2023-05-09T01:15:33.074Z,15.78
2023-05-09T01:18:19.677Z,15.77
2023-05-09T01:20:57.637Z,15.74
2023-05-09T01:23:46.422Z,15.73
2023-05-09T01:26:26.384Z,15.73
2023-05-09T01:29:17.926Z,15.71
2023-05-09T01:31:47.226Z,15.70
2023-05-09T01:34:16.353Z,15.68
2023-05-09T01:36:44.258Z,15.67
2023-05-09T01:39:13.674Z,15.66
2023-05-09T01:41:40.616Z,15.64
2023-05-09T01:44:11.114Z,15.64
2023-05-09T01:46:39.344Z,15.61
2023-05-09T01:49:08.594Z,15.61
2023-05-09T01:51:37.722Z,15.59
2023-05-09T01:54:06.444Z,15.56
2023-05-09T01:56:36.177Z,15.55
2023-05-09T01:59:03.949Z,15.53
2023-05-09T02:01:31.421Z,15.50
2023-05-09T02:03:59.819Z,15.48
2023-05-09T02:06:29.767Z,15.47
2023-05-09T02:08:57.665Z,15.47
2023-05-09T02:11:24.220Z,15.47
2023-05-09T02:13:50.817Z,15.47
2023-05-09T02:16:18.022Z,15.47
2023-05-09T02:18:45.701Z,15.46
2023-05-09T02:21:12.674Z,15.46
2023-05-09T02:23:39.241Z,15.44
2023-05-09T02:26:07.467Z,15.41
2023-05-09T02:28:35.301Z,15.40
2023-05-09T02:31:06.568Z,15.37
2023-05-09T02:33:36.854Z,15.35
2023-05-09T02:36:04.951Z,15.34
2023-05-09T02:38:31.807Z,15.31
2023-05-09T02:40:58.652Z,15.29
2023-05-09T02:43:25.395Z,15.29
2023-05-09T02:45:51.989Z,15.29
2023-05-09T02:48:18.890Z,15.27
2023-05-09T02:50:46.072Z,15.26
2023-05-09T02:53:12.796Z,15.25
2023-05-09T02:55:41.565Z,15.26
2023-05-09T02:58:14.129Z,15.25
2023-05-09T03:00:41.108Z,15.24
2023-05-09T03:03:07.935Z,15.22
2023-05-09T03:05:35.128Z,15.20
2023-05-09T03:08:01.719Z,15.18
2023-05-09T03:10:28.639Z,15.17
2023-05-09T03:12:55.895Z,15.16
2023-05-09T03:15:22.591Z,15.16
2023-05-09T03:17:49.425Z,15.15
2023-05-09T03:20:16.171Z,15.14
2023-05-09T03:22:43.006Z,15.14
2023-05-09T03:25:10.403Z,15.10
2023-05-09T03:27:37.244Z,15.10
2023-05-09T03:30:04.122Z,15.08
2023-05-09T03:32:30.938Z,15.08
2023-05-09T03:34:57.802Z,15.07
2023-05-09T03:37:26.261Z,15.07
2023-05-09T03:39:53.617Z,15.06
2023-05-09T03:42:20.183Z,15.04
2023-05-09T03:44:46.924Z,15.04
2023-05-09T03:47:13.450Z,15.02
2023-05-09T03:49:40.184Z,15.03
2023-05-09T03:52:06.683Z,15.02
2023-05-09T03:54:33.251Z,15.02
2023-05-09T03:56:59.884Z,15.02
2023-05-09T03:59:26.466Z,15.00
2023-05-09T04:01:54.219Z,14.98
2023-05-09T04:04:21.140Z,14.96
2023-05-09T04:06:47.794Z,14.96
2023-05-09T04:09:14.945Z,14.94
2023-05-09T04:11:41.682Z,14.95
2023-05-09T04:14:08.460Z,14.94
2023-05-09T04:16:35.246Z,14.93
2023-05-09T04:19:02.535Z,14.92
2023-05-09T04:21:29.206Z,14.91
2023-05-09T04:23:56.039Z,14.92
2023-05-09T04:26:23.067Z,14.90
2023-05-09T04:28:49.677Z,14.90
2023-05-09T04:31:16.631Z,14.91
2023-05-09T04:33:43.286Z,14.90
2023-05-09T04:36:09.881Z,14.90
2023-05-09T04:38:36.494Z,14.92
2023-05-09T04:41:03.221Z,14.92
2023-05-09T04:43:31.300Z,14.91
2023-05-09T04:45:57.860Z,14.91
2023-05-09T04:48:24.429Z,14.91
2023-05-09T04:50:50.921Z,14.90
2023-05-09T04:53:17.463Z,14.90
2023-05-09T04:55:44.046Z,14.89
2023-05-09T04:58:10.580Z,14.90
2023-05-09T05:00:37.108Z,14.90
2023-05-09T05:03:03.850Z,14.89
2023-05-09T05:05:32.419Z,14.88
2023-05-09T05:08:00.390Z,14.90
2023-05-09T05:10:26.877Z,14.90
2023-05-09T05:12:53.442Z,14.93
2023-05-09T05:15:19.931Z,14.93
2023-05-09T05:17:46.611Z,14.94
2023-05-09T05:20:13.485Z,14.95
2023-05-09T05:22:40.364Z,14.96
2023-05-09T05:25:07.862Z,14.98
2023-05-09T05:27:34.710Z,15.00
2023-05-09T05:30:01.353Z,15.03
2023-05-09T05:32:28.062Z,15.05
2023-05-09T05:34:54.582Z,15.07
2023-05-09T05:37:21.321Z,15.08
2023-05-09T05:39:48.180Z,15.13
2023-05-09T05:42:15.217Z,15.16
2023-05-09T05:44:41.822Z,15.19
2023-05-09T05:47:08.319Z,15.22
2023-05-09T05:49:35.046Z,15.26
2023-05-09T05:52:01.567Z,15.30
2023-05-09T05:54:28.076Z,15.34
2023-05-09T05:56:54.676Z,15.38
2023-05-09T05:59:21.226Z,15.44
2023-05-09T06:01:47.976Z,15.48
2023-05-09T06:04:14.738Z,15.51
2023-05-09T06:06:41.417Z,15.55
2023-05-09T06:09:07.992Z,15.60
2023-05-09T06:11:34.630Z,15.62
2023-05-09T06:14:01.061Z,15.64
2023-05-09T06:16:28.161Z,15.66
2023-05-09T06:18:56.206Z,15.66
2023-05-09T06:21:23.250Z,15.68
2023-05-09T06:24:05.891Z,15.70
2023-05-09T06:26:35.087Z,15.71
2023-05-09T06:29:01.862Z,15.72
2023-05-09T06:31:28.487Z,15.71
2023-05-09T06:33:55.084Z,15.73
2023-05-09T06:36:21.876Z,15.76
2023-05-09T06:38:48.419Z,15.81
2023-05-09T06:41:16.149Z,15.86
2023-05-09T06:43:42.980Z,15.94
2023-05-09T06:46:09.684Z,16.03
2023-05-09T06:48:36.321Z,16.12
2023-05-09T06:51:03.501Z,16.23
2023-05-09T06:53:30.231Z,16.28
2023-05-09T06:55:57.066Z,16.33
2023-05-09T06:58:24.684Z,16.42
2023-05-09T07:00:51.724Z,16.51
2023-05-09T07:03:18.524Z,16.57
2023-05-09T07:05:47.103Z,16.65
2023-05-09T07:08:14.064Z,16.70
2023-05-09T07:10:40.812Z,16.75
2023-05-09T07:13:07.453Z,16.79
2023-05-09T07:15:41.826Z,16.88
2023-05-09T07:18:09.786Z,16.89
2023-05-09T07:20:36.660Z,16.89
2023-05-09T07:23:04.203Z,16.90
2023-05-09T07:25:31.202Z,16.94
2023-05-09T07:27:58.244Z,17.01
2023-05-09T07:30:25.518Z,17.04
2023-05-09T07:32:52.759Z,17.11
2023-05-09T07:35:20.465Z,17.13
2023-05-09T07:37:47.396Z,17.22
2023-05-09T07:40:14.817Z,17.14
2023-05-09T07:42:45.085Z,17.17
2023-05-09T07:45:12.010Z,17.18
2023-05-09T07:47:38.887Z,17.22
2023-05-09T07:50:06.013Z,17.25
2023-05-09T07:52:32.650Z,17.22
2023-05-09T07:54:59.649Z,17.18
2023-05-09T07:57:26.833Z,17.20
2023-05-09T07:59:53.477Z,17.18
2023-05-09T08:05:15.022Z,17.13
2023-05-09T08:07:42.375Z,17.13
2023-05-09T08:10:09.969Z,17.20
2023-05-09T08:15:31.404Z,17.23
2023-05-09T08:18:18.461Z,17.21
2023-05-09T08:26:35.240Z,17.24
2023-05-09T08:29:02.238Z,17.29
2023-05-09T08:31:29.109Z,17.27
2023-05-09T08:33:56.136Z,17.27
2023-05-09T08:36:22.821Z,17.26
2023-05-09T08:38:49.840Z,17.23
2023-05-09T08:41:26.804Z,17.23
2023-05-09T08:46:38.974Z,17.23
2023-05-09T08:49:08.800Z,17.23
2023-05-09T08:51:41.757Z,17.28
2023-05-09T08:54:09.074Z,17.25
2023-05-09T08:56:36.573Z,17.17
2023-05-09T08:59:05.736Z,17.14
2023-05-09T09:04:18.427Z,17.13
2023-05-09T09:06:47.630Z,17.13
2023-05-09T09:09:52.343Z,17.20
2023-05-09T09:12:27.984Z,17.19
2023-05-09T09:14:56.581Z,17.12
2023-05-09T09:17:28.439Z,17.15
2023-05-09T09:20:00.229Z,17.17
2023-05-09T09:22:35.014Z,17.14
2023-05-09T09:25:02.527Z,17.14
2023-05-09T09:27:33.171Z,17.12
2023-05-09T09:30:09.693Z,17.09
2023-05-09T09:32:36.910Z,17.09
2023-05-09T09:35:08.666Z,17.04
2023-05-09T09:37:37.154Z,16.99
2023-05-09T09:40:05.047Z,16.94
2023-05-09T09:42:42.199Z,16.94
2023-05-09T09:45:12.735Z,16.96
2023-05-09T09:47:41.269Z,17.03
2023-05-09T09:50:13.363Z,17.00
2023-05-09T09:52:53.560Z,16.98
2023-05-09T09:55:21.164Z,16.97
2023-05-09T09:57:48.688Z,17.01
2023-05-09T10:00:19.447Z,17.07
2023-05-09T10:02:52.373Z,17.12
2023-05-09T10:05:22.932Z,17.13
2023-05-09T10:08:04.111Z,17.10
2023-05-09T10:10:38.898Z,17.03
2023-05-09T10:13:12.573Z,16.96
2023-05-09T10:15:52.432Z,16.99
2023-05-09T10:18:27.306Z,17.02
2023-05-09T10:20:56.301Z,17.01
2023-05-09T10:23:24.915Z,17.01
2023-05-09T10:26:05.046Z,17.03
2023-05-09T10:28:33.909Z,17.03
2023-05-09T10:31:28.403Z,17.07
2023-05-09T10:33:57.369Z,17.11
2023-05-09T10:36:24.242Z,17.09
2023-05-09T10:38:54.185Z,17.13
2023-05-09T10:41:26.535Z,17.06
2023-05-09T10:43:57.191Z,17.08
2023-05-09T10:46:24.770Z,17.10
2023-05-09T10:48:51.555Z,17.12
2023-05-09T10:51:18.388Z,17.12
2023-05-09T10:53:48.040Z,17.16
2023-05-09T10:56:35.998Z,17.20
2023-05-09T10:59:03.157Z,17.17
2023-05-09T11:01:35.357Z,17.21
2023-05-09T11:04:10.295Z,17.23
2023-05-09T11:06:40.732Z,17.26
2023-05-09T11:09:39.147Z,17.30
2023-05-09T11:12:05.816Z,17.27
2023-05-09T11:14:54.851Z,17.27
2023-05-09T11:17:21.496Z,17.29
2023-05-09T11:19:50.425Z,17.23
2023-05-09T11:22:23.533Z,17.23
2023-05-09T11:24:54.142Z,17.24
2023-05-09T11:27:22.809Z,17.27
2023-05-09T11:29:54.399Z,17.23
2023-05-09T11:32:22.905Z,17.19
2023-05-09T11:34:49.693Z,17.25
2023-05-09T11:37:20.557Z,17.28
2023-05-09T11:40:03.184Z,17.33
2023-05-09T11:42:29.895Z,17.35
2023-05-09T11:44:58.143Z,17.34
2023-05-09T11:47:25.868Z,17.33
2023-05-09T11:49:52.693Z,17.32
2023-05-09T11:52:20.010Z,17.32
2023-05-09T11:54:46.633Z,17.28
2023-05-09T11:57:17.427Z,17.24
2023-05-09T11:59:45.721Z,17.17
2023-05-09T12:05:10.585Z,17.13
2023-05-09T12:07:39.576Z,17.08
2023-05-09T12:10:15.634Z,17.06
2023-05-09T12:18:34.921Z,16.93
2023-05-09T12:23:57.446Z,16.81
2023-05-09T12:26:37.531Z,16.79
2023-05-09T12:29:04.438Z,16.78
2023-05-09T12:34:26.314Z,16.79
2023-05-09T12:36:53.735Z,16.79
2023-05-09T12:39:24.679Z,16.80
2023-05-09T12:42:01.144Z,16.79
2023-05-09T12:45:03.898Z,16.83
2023-05-09T12:47:16.052Z,16.82
2023-05-09T12:49:42.624Z,16.83
2023-05-09T12:52:18.711Z,16.88
2023-05-09T12:54:48.005Z,16.91
2023-05-09T12:57:25.024Z,16.94
2023-05-09T12:59:52.121Z,16.98
2023-05-09T13:02:19.334Z,17.01
2023-05-09T13:04:46.258Z,17.09
2023-05-09T13:07:13.285Z,17.03
2023-05-09T13:09:57.005Z,17.09
2023-05-09T13:15:20.595Z,17.10
2023-05-09T13:17:50.497Z,17.10
2023-05-09T13:20:17.436Z,17.10
2023-05-09T13:22:45.757Z,17.10
2023-05-09T13:25:13.247Z,17.13
2023-05-09T13:27:39.876Z,17.07
2023-05-09T13:30:09.992Z,17.07
2023-05-09T13:32:37.225Z,17.08
2023-05-09T13:35:06.957Z,17.03
2023-05-09T13:37:34.393Z,16.98
2023-05-09T13:40:01.029Z,16.99
2023-05-09T13:42:28.100Z,16.97
2023-05-09T13:44:54.823Z,16.94
2023-05-09T13:47:21.612Z,16.95
2023-05-09T13:49:48.132Z,16.98
2023-05-09T13:52:16.221Z,16.99
2023-05-09T13:54:43.142Z,17.02
2023-05-09T13:57:09.978Z,17.07
2023-05-09T13:59:36.721Z,17.07
2023-05-09T14:02:03.998Z,17.02
2023-05-09T14:04:34.153Z,16.99
2023-05-09T14:07:01.366Z,16.95
2023-05-09T14:09:29.700Z,16.93
2023-05-09T14:11:57.282Z,16.89
2023-05-09T14:14:25.226Z,16.87
2023-05-09T14:16:52.225Z,16.83
2023-05-09T14:19:18.858Z,16.82
2023-05-09T14:21:48.983Z,16.82
2023-05-09T14:24:16.500Z,16.82
2023-05-09T14:26:44.095Z,16.79
2023-05-09T14:29:11.133Z,16.81
2023-05-09T14:31:38.023Z,16.80
2023-05-09T14:34:05.725Z,16.80
2023-05-09T14:36:32.848Z,16.74
2023-05-09T14:38:59.443Z,16.75
2023-05-09T14:41:26.099Z,16.75
2023-05-09T14:43:52.735Z,16.72
2023-05-09T14:46:19.393Z,16.73
2023-05-09T14:48:46.147Z,16.76
2023-05-09T14:51:12.901Z,16.82
2023-05-09T14:53:41.985Z,16.80
2023-05-09T14:56:10.572Z,16.84
2023-05-09T14:58:37.580Z,16.90
2023-05-09T15:01:13.383Z,16.91
2023-05-09T15:03:40.247Z,16.93
2023-05-09T15:06:07.033Z,16.88
2023-05-09T15:08:35.337Z,16.93
2023-05-09T15:11:02.096Z,16.93
2023-05-09T15:13:28.723Z,16.87
2023-05-09T15:15:55.333Z,16.86
2023-05-09T15:18:23.721Z,16.82
2023-05-09T15:20:52.077Z,16.86
2023-05-09T15:23:18.622Z,16.85
2023-05-09T15:25:47.107Z,16.83
2023-05-09T15:28:13.688Z,16.86
2023-05-09T15:30:41.646Z,16.84
2023-05-09T15:33:08.730Z,16.92
2023-05-09T15:35:35.546Z,16.93
2023-05-09T15:38:02.776Z,16.95
2023-05-09T15:40:29.399Z,16.99
2023-05-09T15:42:56.155Z,16.95
2023-05-09T15:45:22.796Z,16.95
2023-05-09T15:47:49.470Z,16.87
2023-05-09T15:50:16.768Z,16.92
2023-05-09T15:52:43.738Z,16.91
2023-05-09T15:55:10.803Z,16.91
2023-05-09T15:57:37.446Z,16.89
2023-05-09T16:00:05.623Z,16.87
2023-05-09T16:02:32.611Z,16.85
2023-05-09T16:04:59.202Z,16.83
2023-05-09T16:07:26.310Z,16.80
2023-05-09T16:09:52.773Z,16.81
2023-05-09T16:12:20.444Z,16.80
2023-05-09T16:14:46.974Z,16.77
2023-05-09T16:17:13.829Z,16.79
2023-05-09T16:19:41.311Z,16.80
2023-05-09T16:22:07.965Z,16.83
2023-05-09T16:24:34.504Z,16.83
2023-05-09T16:27:01.123Z,16.83
2023-05-09T16:29:28.703Z,16.85
2023-05-09T16:31:55.251Z,16.82
2023-05-09T16:34:22.025Z,16.82
2023-05-09T16:36:48.592Z,16.82
2023-05-09T16:39:15.344Z,16.77
2023-05-09T16:41:42.106Z,16.79
2023-05-09T16:44:08.711Z,16.82
2023-05-09T16:46:35.261Z,16.85
2023-05-09T16:49:02.308Z,16.84
2023-05-09T16:51:28.963Z,16.80
2023-05-09T16:53:55.650Z,16.83
2023-05-09T16:56:22.635Z,16.86
2023-05-09T16:58:49.411Z,16.87
2023-05-09T17:01:16.123Z,16.88
2023-05-09T17:03:42.776Z,16.90
2023-05-09T17:06:10.589Z,16.89
2023-05-09T17:08:37.126Z,16.86
2023-05-09T17:14:02.177Z,16.79
2023-05-09T17:16:29.003Z,16.78
2023-05-09T17:18:55.623Z,16.76
2023-05-09T17:21:22.951Z,16.77
2023-05-09T17:23:49.588Z,16.72
2023-05-09T17:26:22.239Z,16.72
2023-05-09T17:28:49.714Z,16.69
2023-05-09T17:31:16.339Z,16.66
2023-05-09T17:33:43.661Z,16.63
2023-05-09T17:36:10.526Z,16.63
2023-05-09T17:38:37.359Z,16.67
2023-05-09T17:41:04.277Z,16.66
2023-05-09T17:43:31.885Z,16.68
2023-05-09T17:46:04.018Z,16.69
2023-05-09T17:48:30.555Z,16.68
2023-05-09T17:50:57.228Z,16.67
2023-05-09T17:53:24.127Z,16.66
2023-05-09T17:55:51.061Z,16.64
2023-05-09T17:58:17.640Z,16.65
2023-05-09T18:00:44.657Z,16.66
2023-05-09T18:03:11.716Z,16.67
2023-05-09T18:08:32.670Z,16.67
2023-05-09T18:10:59.211Z,16.64
2023-05-09T18:13:25.853Z,16.64
2023-05-09T18:15:54.946Z,16.62
2023-05-09T18:18:22.346Z,16.60
2023-05-09T18:20:49.037Z,16.55
2023-05-09T18:23:16.093Z,16.56
2023-05-09T18:28:39.848Z,16.52
2023-05-09T18:31:09.547Z,16.52
2023-05-09T18:33:38.485Z,16.52
2023-05-09T18:39:03.707Z,16.46
2023-05-09T18:41:32.163Z,16.43
2023-05-09T18:43:58.840Z,16.41
2023-05-09T18:46:28.010Z,16.42
2023-05-09T18:48:54.925Z,16.43
2023-05-09T18:51:21.550Z,16.47
2023-05-09T18:53:48.439Z,16.48
2023-05-09T18:56:16.126Z,16.49
2023-05-09T18:58:42.871Z,16.50
2023-05-09T19:04:06.994Z,16.49
2023-05-09T19:06:33.814Z,16.49
2023-05-09T19:09:02.320Z,16.49
2023-05-09T19:11:29.265Z,16.47
2023-05-09T19:13:56.012Z,16.49
2023-05-09T19:16:24.695Z,16.47
2023-05-09T19:18:51.439Z,16.46
2023-05-09T19:21:18.831Z,16.48
2023-05-09T19:23:49.276Z,16.49
2023-05-09T19:26:17.829Z,16.47
2023-05-09T19:28:46.240Z,16.42
2023-05-09T19:31:14.349Z,16.39
2023-05-09T19:33:41.978Z,16.36
2023-05-09T19:36:08.545Z,16.32
2023-05-09T19:38:35.284Z,16.25
2023-05-09T19:43:56.153Z,16.17
2023-05-09T19:46:22.879Z,16.17
2023-05-09T19:48:49.734Z,16.15
2023-05-09T19:51:16.333Z,16.11
2023-05-09T19:53:42.944Z,16.08
2023-05-09T19:59:04.691Z,16.06
2023-05-09T20:01:31.463Z,16.04
2023-05-09T20:03:59.578Z,15.99
2023-05-09T20:06:26.158Z,15.96
2023-05-09T20:08:52.782Z,15.90
2023-05-09T20:11:19.487Z,15.74
2023-05-09T20:13:46.021Z,15.65
2023-05-09T20:16:12.974Z,15.51
2023-05-09T20:18:39.821Z,15.38
2023-05-09T20:21:09.851Z,15.34
2023-05-09T20:23:37.033Z,15.30
2023-05-09T20:26:03.868Z,15.27
2023-05-09T20:28:30.872Z,15.19
2023-05-09T20:30:57.405Z,15.11
2023-05-09T20:33:23.987Z,15.03
2023-05-09T20:35:53.230Z,14.95
2023-05-09T20:38:19.830Z,14.86
2023-05-09T20:40:47.794Z,14.76
2023-05-09T20:43:14.542Z,14.67
2023-05-09T20:45:41.740Z,14.60
2023-05-09T20:48:08.472Z,14.51
2023-05-09T20:50:35.681Z,14.46
2023-05-09T20:53:02.512Z,14.41
2023-05-09T20:55:29.220Z,14.35
2023-05-09T20:57:56.104Z,14.28
2023-05-09T21:00:23.223Z,14.23
2023-05-09T21:02:50.885Z,14.18
2023-05-09T21:05:17.799Z,14.13
2023-05-09T21:07:44.621Z,14.08
2023-05-09T21:10:11.882Z,14.05
2023-05-09T21:12:38.522Z,14.00
2023-05-09T21:15:05.965Z,13.98
2023-05-09T21:17:32.952Z,13.97
2023-05-09T21:19:59.598Z,13.95
2023-05-09T21:22:26.271Z,13.94
2023-05-09T21:24:52.958Z,13.92
2023-05-09T21:27:19.637Z,13.88
2023-05-09T21:29:49.197Z,13.88
2023-05-09T21:32:16.960Z,13.86
2023-05-09T21:34:43.826Z,13.84
2023-05-09T21:37:10.339Z,13.82
2023-05-09T21:39:36.856Z,13.82
2023-05-09T21:42:03.734Z,13.81
2023-05-09T21:44:30.543Z,13.77
2023-05-09T21:46:57.368Z,13.77
2023-05-09T21:49:24.053Z,13.77
2023-05-09T21:51:50.656Z,13.76
2023-05-09T21:54:17.565Z,13.76
2023-05-09T21:56:44.125Z,13.77
2023-05-09T21:59:11.163Z,13.75
2023-05-09T22:01:37.834Z,13.76
2023-05-09T22:04:05.492Z,13.78
2023-05-09T22:06:32.595Z,13.77
2023-05-09T22:08:59.206Z,13.76
2023-05-09T22:11:25.767Z,13.74
2023-05-09T22:13:52.318Z,13.75
2023-05-09T22:16:19.171Z,13.74
2023-05-09T22:18:45.710Z,13.74
2023-05-09T22:21:12.888Z,13.75
2023-05-09T22:23:39.493Z,13.75
2023-05-09T22:26:06.122Z,13.74
2023-05-09T22:28:32.647Z,13.74
2023-05-09T22:30:59.135Z,13.74
2023-05-09T22:33:27.028Z,13.74
2023-05-09T22:35:53.813Z,13.72
2023-05-09T22:38:20.288Z,13.72
2023-05-09T22:40:52.936Z,13.71
2023-05-09T22:43:20.365Z,13.72
2023-05-09T22:45:47.076Z,13.69
2023-05-09T22:48:13.841Z,13.67
2023-05-09T22:50:40.397Z,13.67
2023-05-09T22:53:07.262Z,13.64
2023-05-09T22:55:33.703Z,13.64
2023-05-09T22:58:00.411Z,13.64
2023-05-09T23:00:27.359Z,13.63
2023-05-09T23:02:53.914Z,13.63
2023-05-09T23:05:21.240Z,13.63
2023-05-09T23:07:47.843Z,13.62
2023-05-09T23:10:14.779Z,13.61
2023-05-09T23:12:41.528Z,13.60
2023-05-09T23:15:08.848Z,13.58
2023-05-09T23:17:35.736Z,13.56
2023-05-09T23:20:03.936Z,13.57
2023-05-09T23:22:30.823Z,13.57
2023-05-09T23:24:57.638Z,13.58
2023-05-09T23:27:24.906Z,13.59
2023-05-09T23:29:51.461Z,13.57
2023-05-09T23:32:17.966Z,13.56
2023-05-09T23:34:44.557Z,13.55
2023-05-09T23:37:12.176Z,13.55
2023-05-09T23:39:38.746Z,13.55
2023-05-09T23:42:05.368Z,13.55
2023-05-09T23:44:31.998Z,13.54
2023-05-09T23:46:58.709Z,13.53
2023-05-09T23:49:25.278Z,13.52
2023-05-09T23:51:51.869Z,13.52
2023-05-09T23:54:18.525Z,13.51
2023-05-09T23:56:45.124Z,13.51
2023-05-09T23:59:11.743Z,13.51
